Time;durP1;ratioP1;P1;durP2;ratioP2;P2;SDS_P1;SDS_P2;PMS_P1;PMS_P2;Temp;Humidity;BMP_temperature;BMP_pressure;BME280_temperature;BME280_humidity;BME280_pressure;Samples;Min_cycle;Max_cycle;Signal;HPM_P1;HPM_P2
2022/04/08 00:02:18;;;;;;;4.18;1.02;;;;;;;;;;4994411;28;99910;-76
2022/04/08 00:04:51;;;;;;;11.90;1.90;;;;;;;;;;4997352;28;101066;-77
2022/04/08 00:07:17;;;;;;;7.63;1.23;;;;;;;;;;4994920;28;99643;-76
2022/04/08 00:09:44;;;;;;;8.57;1.75;;;;;;;;;;4995277;28;99514;-76
2022/04/08 00:12:10;;;;;;;9.15;1.58;;;;;;;;;;4995685;28;98421;-76
2022/04/08 00:14:37;;;;;;;6.28;1.58;;;;;;;;;;4995638;28;99851;-77
2022/04/08 00:17:04;;;;;;;6.05;1.10;;;;;;;;;;4993767;28;100679;-76
2022/04/08 00:19:31;;;;;;;8.73;1.77;;;;;;;;;;4995389;28;98304;-76
2022/04/08 00:21:58;;;;;;;5.80;1.35;;;;;;;;;;4995383;28;99343;-77
2022/04/08 00:24:24;;;;;;;6.00;1.13;;;;;;;;;;4998645;28;99443;-77
2022/04/08 00:26:50;;;;;;;14.45;1.80;;;;;;;;;;4994995;28;99394;-77
2022/04/08 00:29:17;;;;;;;10.40;1.58;;;;;;;;;;4994841;28;99576;-75
2022/04/08 00:31:44;;;;;;;10.57;2.13;;;;;;;;;;4994889;28;99326;-77
2022/04/08 00:34:10;;;;;;;9.00;1.85;;;;;;;;;;4995041;28;100123;-76
2022/04/08 00:36:37;;;;;;;12.65;2.42;;;;;;;;;;4994437;28;100013;-77
2022/04/08 00:39:03;;;;;;;18.33;1.92;;;;;;;;;;4994047;28;98312;-76
2022/04/08 00:41:29;;;;;;;10.15;1.65;;;;;;;;;;4994996;28;98520;-75
2022/04/08 00:43:55;;;;;;;13.32;2.33;;;;;;;;;;4994589;28;100135;-77
2022/04/08 00:46:22;;;;;;;11.05;1.90;;;;;;;;;;4998121;28;98253;-78
2022/04/08 00:48:49;;;;;;;11.50;1.88;;;;;;;;;;4994783;28;98816;-76
2022/04/08 00:51:15;;;;;;;13.77;2.03;;;;;;;;;;4994886;28;98312;-76
2022/04/08 00:53:44;;;;;;;10.30;1.48;;;;;;;;;;4993571;28;102330;-76
2022/04/08 00:56:10;;;;;;;11.63;1.85;;;;;;;;;;4993777;28;100706;-77
2022/04/08 00:58:37;;;;;;;8.48;2.00;;;;;;;;;;4994763;28;98379;-75
2022/04/08 01:01:03;;;;;;;18.20;2.40;;;;;;;;;;4994749;28;99449;-75
2022/04/08 01:03:30;;;;;;;11.85;2.42;;;;;;;;;;4993232;28;100302;-76
2022/04/08 01:05:57;;;;;;;18.58;2.53;;;;;;;;;;4994620;28;99034;-76
2022/04/08 01:08:23;;;;;;;15.70;1.85;;;;;;;;;;4997257;28;100827;-75
2022/04/08 01:10:50;;;;;;;12.13;1.58;;;;;;;;;;4994571;28;98286;-77
2022/04/08 01:13:16;;;;;;;9.30;2.08;;;;;;;;;;4995081;28;99414;-75
2022/04/08 01:15:43;;;;;;;23.17;2.67;;;;;;;;;;4994307;28;99309;-76
2022/04/08 01:18:10;;;;;;;17.92;2.00;;;;;;;;;;4994023;28;98374;-76
2022/04/08 01:20:36;;;;;;;19.65;2.35;;;;;;;;;;4976133;28;102965;-76
2022/04/08 01:23:03;;;;;;;10.82;1.73;;;;;;;;;;4993903;28;99264;-75
2022/04/08 01:25:29;;;;;;;14.52;1.98;;;;;;;;;;4993474;28;98339;-76
2022/04/08 01:27:56;;;;;;;12.02;1.48;;;;;;;;;;4994369;28;99526;-76
2022/04/08 01:30:22;;;;;;;9.38;2.00;;;;;;;;;;4996998;28;99765;-78
2022/04/08 01:32:48;;;;;;;8.27;1.50;;;;;;;;;;4994200;28;99735;-76
2022/04/08 01:35:15;;;;;;;11.32;1.80;;;;;;;;;;4993939;28;99601;-75
2022/04/08 01:37:41;;;;;;;10.63;1.92;;;;;;;;;;4994557;28;97516;-77
2022/04/08 01:40:08;;;;;;;13.60;1.95;;;;;;;;;;4992862;28;101240;-75
2022/04/08 01:42:35;;;;;;;16.48;2.42;;;;;;;;;;4993571;28;99505;-76
2022/04/08 01:45:01;;;;;;;11.57;3.13;;;;;;;;;;4993614;28;99153;-76
2022/04/08 01:47:28;;;;;;;22.42;2.72;;;;;;;;;;4993587;28;99546;-75
2022/04/08 01:49:55;;;;;;;15.57;2.35;;;;;;;;;;4993670;28;99334;-75
2022/04/08 01:52:21;;;;;;;15.77;2.30;;;;;;;;;;4996340;28;98444;-76
2022/04/08 01:54:47;;;;;;;17.17;2.10;;;;;;;;;;4993425;28;100042;-76
2022/04/08 01:57:15;;;;;;;11.75;2.30;;;;;;;;;;4993496;28;98381;-76
2022/04/08 01:59:41;;;;;;;17.50;2.28;;;;;;;;;;4993122;28;99380;-75
2022/04/08 02:02:08;;;;;;;13.23;2.08;;;;;;;;;;4993837;28;98405;-76
2022/04/08 02:04:35;;;;;;;15.98;2.58;;;;;;;;;;4993618;28;98673;-75
2022/04/08 02:07:02;;;;;;;17.60;2.75;;;;;;;;;;4993631;28;98843;-75
2022/04/08 02:09:29;;;;;;;14.13;2.38;;;;;;;;;;4992929;28;100462;-75
2022/04/08 02:11:55;;;;;;;12.13;1.95;;;;;;;;;;4993753;28;98337;-76
2022/04/08 02:14:22;;;;;;;15.98;2.50;;;;;;;;;;4996340;28;98707;-76
2022/04/08 02:16:48;;;;;;;19.70;2.65;;;;;;;;;;4993478;28;98415;-76
2022/04/08 02:19:14;;;;;;;16.63;2.65;;;;;;;;;;4993304;28;100838;-75
2022/04/08 02:21:42;;;;;;;10.85;2.33;;;;;;;;;;4993040;28;99711;-75
2022/04/08 02:24:08;;;;;;;21.80;2.72;;;;;;;;;;4993429;28;98554;-75
2022/04/08 02:26:34;;;;;;;21.35;2.38;;;;;;;;;;4994062;28;99391;-76
2022/04/08 02:29:01;;;;;;;15.18;2.00;;;;;;;;;;4992841;28;99670;-76
2022/04/08 02:31:27;;;;;;;13.90;2.38;;;;;;;;;;4992819;28;98471;-75
2022/04/08 02:33:53;;;;;;;10.48;2.33;;;;;;;;;;4995821;28;99369;-75
2022/04/08 02:36:20;;;;;;;17.02;2.55;;;;;;;;;;4993278;28;98233;-74
2022/04/08 02:38:46;;;;;;;13.10;2.00;;;;;;;;;;4993057;28;99783;-75
2022/04/08 02:41:13;;;;;;;13.43;2.08;;;;;;;;;;4992882;28;100005;-75
2022/04/08 02:43:39;;;;;;;11.40;1.67;;;;;;;;;;4991820;28;98532;-75
2022/04/08 02:46:05;;;;;;;2.13;1.50;;;;;;;;;;4993173;28;99309;-75
2022/04/08 02:48:32;;;;;;;7.22;1.95;;;;;;;;;;4992656;28;99731;-75
2022/04/08 02:50:58;;;;;;;5.55;1.60;;;;;;;;;;4993713;28;97688;-75
2022/04/08 02:53:24;;;;;;;6.03;1.20;;;;;;;;;;4993215;28;98941;-76
2022/04/08 02:55:51;;;;;;;3.63;1.23;;;;;;;;;;4994671;28;100431;-76
2022/04/08 02:58:17;;;;;;;7.60;1.88;;;;;;;;;;4992277;28;99519;-75
2022/04/08 03:00:43;;;;;;;9.40;2.25;;;;;;;;;;4992690;28;99512;-75
2022/04/08 03:03:10;;;;;;;8.82;1.67;;;;;;;;;;4993083;28;98406;-76
2022/04/08 03:05:36;;;;;;;1.30;1.17;;;;;;;;;;4993015;28;98730;-77
2022/04/08 03:08:03;;;;;;;4.75;1.38;;;;;;;;;;4992506;28;99124;-75
2022/04/08 03:10:29;;;;;;;10.02;2.72;;;;;;;;;;4993144;28;98213;-75
2022/04/08 03:12:55;;;;;;;5.60;1.58;;;;;;;;;;4996082;28;100791;-76
2022/04/08 03:15:22;;;;;;;8.68;1.77;;;;;;;;;;4996649;28;98499;-76
2022/04/08 03:17:51;;;;;;;6.45;1.60;;;;;;;;;;4999206;28;98609;-75
2022/04/08 03:20:18;;;;;;;5.82;1.70;;;;;;;;;;4995789;28;99977;-76
2022/04/08 03:22:45;;;;;;;4.05;1.70;;;;;;;;;;4995694;28;98930;-76
2022/04/08 03:25:11;;;;;;;5.30;1.52;;;;;;;;;;4996155;28;100518;-76
2022/04/08 03:27:37;;;;;;;5.15;1.70;;;;;;;;;;4995822;28;99572;-77
2022/04/08 03:30:04;;;;;;;3.40;1.60;;;;;;;;;;4996183;28;98239;-77
2022/04/08 03:32:30;;;;;;;5.93;1.88;;;;;;;;;;4995941;28;99647;-77
2022/04/08 03:34:57;;;;;;;6.53;1.92;;;;;;;;;;4995320;28;100916;-76
2022/04/08 03:37:27;;;;;;;7.65;2.17;;;;;;;;;;4995956;28;98329;-75
2022/04/08 03:39:53;;;;;;;7.32;2.45;;;;;;;;;;4998112;28;100782;-76
2022/04/08 03:42:20;;;;;;;8.13;2.92;;;;;;;;;;4995802;28;98404;-76
2022/04/08 03:44:46;;;;;;;5.93;1.50;;;;;;;;;;4995772;28;99359;-75
2022/04/08 03:47:13;;;;;;;7.47;1.48;;;;;;;;;;4995098;28;100237;-77
2022/04/08 03:49:39;;;;;;;6.70;2.25;;;;;;;;;;4995527;28;98428;-76
2022/04/08 03:52:08;;;;;;;5.53;2.15;;;;;;;;;;4995923;28;99964;-77
2022/04/08 03:54:35;;;;;;;10.18;2.50;;;;;;;;;;4994077;28;99646;-76
2022/04/08 03:57:02;;;;;;;6.05;2.38;;;;;;;;;;4995712;28;98417;-78
2022/04/08 03:59:28;;;;;;;6.80;2.35;;;;;;;;;;4995701;28;99297;-77
2022/04/08 04:01:55;;;;;;;6.03;2.30;;;;;;;;;;4998490;28;99713;-77
2022/04/08 04:04:21;;;;;;;7.53;2.45;;;;;;;;;;4996324;28;99377;-76
2022/04/08 04:06:48;;;;;;;11.75;2.33;;;;;;;;;;4995289;28;99678;-77
2022/04/08 04:09:14;;;;;;;5.30;2.30;;;;;;;;;;4995237;28;98413;-77
2022/04/08 04:11:40;;;;;;;12.82;2.35;;;;;;;;;;4995014;28;99964;-77
2022/04/08 04:14:07;;;;;;;10.57;2.45;;;;;;;;;;4993740;28;100757;-77
2022/04/08 04:16:33;;;;;;;8.35;2.30;;;;;;;;;;4995563;28;98256;-77
2022/04/08 04:19:00;;;;;;;12.32;3.03;;;;;;;;;;4995230;28;99350;-76
2022/04/08 04:21:27;;;;;;;14.57;2.70;;;;;;;;;;4993375;28;99708;-79
2022/04/08 04:23:53;;;;;;;5.43;2.63;;;;;;;;;;4997807;28;98473;-78
2022/04/08 04:26:23;;;;;;;10.10;2.50;;;;;;;;;;4995059;28;99618;-76
2022/04/08 04:28:49;;;;;;;8.15;2.50;;;;;;;;;;4994549;28;97568;-78
2022/04/08 04:31:16;;;;;;;10.70;2.50;;;;;;;;;;4995394;28;99019;-79
2022/04/08 04:33:42;;;;;;;9.73;2.40;;;;;;;;;;4994732;28;99325;-76
2022/04/08 04:36:11;;;;;;;7.22;2.38;;;;;;;;;;4994532;28;99077;-78
2022/04/08 04:38:37;;;;;;;18.73;3.08;;;;;;;;;;4994898;28;100029;-77
2022/04/08 04:41:03;;;;;;;5.93;2.88;;;;;;;;;;4994806;28;99871;-77
2022/04/08 04:43:30;;;;;;;13.02;2.53;;;;;;;;;;4997457;28;98398;-77
2022/04/08 04:45:56;;;;;;;15.60;3.00;;;;;;;;;;4994500;28;100358;-77
2022/04/08 04:48:22;;;;;;;14.68;2.90;;;;;;;;;;4994474;28;98332;-77
2022/04/08 04:50:49;;;;;;;6.38;2.72;;;;;;;;;;4994593;28;99637;-78
2022/04/08 04:53:16;;;;;;;8.73;2.58;;;;;;;;;;4994644;28;99705;-76
2022/04/08 04:55:42;;;;;;;6.53;2.90;;;;;;;;;;4994854;28;98481;-76
2022/04/08 04:58:08;;;;;;;12.50;3.28;;;;;;;;;;4994488;28;98396;-77
2022/04/08 05:00:35;;;;;;;12.27;3.40;;;;;;;;;;4992834;28;99737;-78
2022/04/08 05:03:01;;;;;;;11.60;3.20;;;;;;;;;;4993285;28;98490;-78
2022/04/08 05:05:28;;;;;;;8.43;3.20;;;;;;;;;;4997213;28;99057;-78
2022/04/08 05:07:54;;;;;;;11.75;2.80;;;;;;;;;;4994824;28;98210;-77
2022/04/08 05:10:21;;;;;;;12.00;3.38;;;;;;;;;;4993736;28;99013;-78
2022/04/08 05:12:47;;;;;;;20.13;3.60;;;;;;;;;;4993700;28;99424;-77
2022/04/08 05:15:13;;;;;;;13.38;3.63;;;;;;;;;;4994926;28;98320;-77
2022/04/08 05:17:40;;;;;;;6.35;3.03;;;;;;;;;;4995281;28;99456;-78
2022/04/08 05:20:07;;;;;;;9.18;3.47;;;;;;;;;;4992825;28;100378;-77
2022/04/08 05:22:33;;;;;;;15.95;4.63;;;;;;;;;;4994690;28;98559;-77
2022/04/08 05:25:00;;;;;;;14.73;4.43;;;;;;;;;;4993045;28;100644;-78
2022/04/08 05:27:27;;;;;;;10.95;5.15;;;;;;;;;;4997376;28;99770;-77
2022/04/08 05:30:02;;;;;;;12.13;4.80;;;;;;;;;;4993557;28;99230;-77
2022/04/08 05:32:29;;;;;;;15.20;5.03;;;;;;;;;;4993782;28;99681;-78
2022/04/08 05:34:55;;;;;;;10.25;3.95;;;;;;;;;;4993324;28;98366;-76
2022/04/08 05:37:25;;;;;;;13.07;3.78;;;;;;;;;;4994135;28;99692;-78
2022/04/08 05:39:54;;;;;;;9.40;4.15;;;;;;;;;;4993797;28;99033;-77
2022/04/08 05:42:21;;;;;;;15.18;4.32;;;;;;;;;;4994717;28;97479;-76
2022/04/08 05:44:47;;;;;;;11.75;4.10;;;;;;;;;;4992958;28;98944;-77
2022/04/08 05:47:14;;;;;;;15.80;4.45;;;;;;;;;;4993531;28;99940;-77
2022/04/08 05:49:40;;;;;;;11.82;4.22;;;;;;;;;;4996181;28;99125;-77
2022/04/08 05:52:07;;;;;;;11.68;3.92;;;;;;;;;;4993583;28;99241;-78
2022/04/08 05:54:33;;;;;;;10.77;4.47;;;;;;;;;;4993263;28;98371;-77
2022/04/08 05:57:01;;;;;;;11.43;3.75;;;;;;;;;;4993894;28;99371;-76
2022/04/08 05:59:28;;;;;;;11.63;4.47;;;;;;;;;;4993499;28;99883;-76
2022/04/08 06:01:56;;;;;;;12.15;4.18;;;;;;;;;;4993556;28;98383;-77
2022/04/08 06:04:24;;;;;;;7.15;3.78;;;;;;;;;;4993869;28;98827;-76
2022/04/08 06:06:50;;;;;;;9.15;3.63;;;;;;;;;;4993878;28;98404;-75
2022/04/08 06:09:17;;;;;;;8.93;3.10;;;;;;;;;;4993546;28;98349;-74
2022/04/08 06:11:44;;;;;;;8.23;3.03;;;;;;;;;;4996555;28;99386;-75
2022/04/08 06:14:10;;;;;;;10.10;3.22;;;;;;;;;;4993085;28;99058;-75
2022/04/08 06:16:37;;;;;;;10.27;3.08;;;;;;;;;;4993330;28;100368;-76
2022/04/08 06:19:03;;;;;;;10.50;3.17;;;;;;;;;;4992996;28;99703;-75
2022/04/08 06:21:29;;;;;;;10.43;3.30;;;;;;;;;;4993367;28;98293;-76
2022/04/08 06:24:01;;;;;;;11.30;3.38;;;;;;;;;;4993541;28;99315;-76
2022/04/08 06:26:32;;;;;;;10.18;3.40;;;;;;;;;;4993144;28;99065;-75
2022/04/08 06:29:00;;;;;;;10.13;3.28;;;;;;;;;;4993181;28;98378;-74
2022/04/08 06:31:29;;;;;;;5.68;2.55;;;;;;;;;;4996726;28;98907;-73
2022/04/08 06:34:00;;;;;;;6.18;2.70;;;;;;;;;;4993324;28;98225;-75
2022/04/08 06:36:27;;;;;;;10.25;2.97;;;;;;;;;;4993291;28;99666;-75
2022/04/08 06:38:54;;;;;;;5.90;2.80;;;;;;;;;;4991721;28;102309;-74
2022/04/08 06:41:20;;;;;;;5.30;2.80;;;;;;;;;;4993227;28;98347;-75
2022/04/08 06:43:47;;;;;;;4.60;2.80;;;;;;;;;;4991735;28;100507;-74
2022/04/08 06:46:13;;;;;;;7.50;2.70;;;;;;;;;;4992570;28;99969;-74
2022/04/08 06:48:39;;;;;;;7.25;2.72;;;;;;;;;;4992701;28;98264;-76
2022/04/08 06:51:06;;;;;;;16.65;3.33;;;;;;;;;;4993120;28;99320;-75
2022/04/08 06:53:33;;;;;;;9.52;2.50;;;;;;;;;;4995998;28;99712;-75
2022/04/08 06:56:03;;;;;;;13.68;3.13;;;;;;;;;;4993661;28;99714;-75
2022/04/08 06:58:30;;;;;;;8.90;2.85;;;;;;;;;;4992598;28;99503;-75
2022/04/08 07:00:57;;;;;;;6.63;3.00;;;;;;;;;;4992769;28;98441;-75
2022/04/08 07:03:24;;;;;;;6.10;2.40;;;;;;;;;;4992571;28;99061;-75
2022/04/08 07:05:50;;;;;;;8.25;2.50;;;;;;;;;;4992485;28;100258;-76
2022/04/08 07:08:17;;;;;;;5.80;2.20;;;;;;;;;;4993124;28;98298;-75
2022/04/08 07:10:43;;;;;;;9.93;2.80;;;;;;;;;;4992620;28;99179;-75
2022/04/08 07:13:09;;;;;;;13.65;2.78;;;;;;;;;;4992826;28;98998;-75
2022/04/08 07:15:36;;;;;;;7.63;2.47;;;;;;;;;;4996287;28;98351;-76
2022/04/08 07:18:03;;;;;;;11.00;2.42;;;;;;;;;;4992319;28;99508;-76
2022/04/08 07:20:30;;;;;;;16.63;2.85;;;;;;;;;;4993019;28;97612;-75
2022/04/08 07:23:01;;;;;;;8.63;2.65;;;;;;;;;;4992401;28;99468;-75
2022/04/08 07:25:28;;;;;;;15.13;2.53;;;;;;;;;;4992082;28;100030;-77
2022/04/08 07:27:56;;;;;;;7.47;2.40;;;;;;;;;;4992213;28;98913;-77
2022/04/08 07:30:22;;;;;;;6.07;2.47;;;;;;;;;;4992783;28;100073;-76
2022/04/08 07:32:54;;;;;;;9.60;2.85;;;;;;;;;;4992140;28;99927;-77
2022/04/08 07:35:21;;;;;;;6.65;2.30;;;;;;;;;;4992596;28;98404;-77
2022/04/08 07:37:48;;;;;;;10.55;3.10;;;;;;;;;;4995286;28;99382;-77
2022/04/08 07:40:14;;;;;;;7.72;2.40;;;;;;;;;;4992413;28;98275;-77
2022/04/08 07:42:41;;;;;;;10.18;2.72;;;;;;;;;;4992539;28;98618;-77
2022/04/08 07:45:07;;;;;;;4.93;2.00;;;;;;;;;;4992580;28;99318;-77
2022/04/08 07:47:34;;;;;;;7.03;2.10;;;;;;;;;;4992171;28;98367;-77
2022/04/08 07:50:02;;;;;;;5.40;1.92;;;;;;;;;;4991576;28;98902;-77
2022/04/08 07:52:28;;;;;;;4.47;2.42;;;;;;;;;;4991390;28;100013;-78
2022/04/08 07:54:55;;;;;;;7.82;2.50;;;;;;;;;;4992438;28;98209;-78
2022/04/08 07:57:21;;;;;;;17.55;2.15;;;;;;;;;;4993732;28;99392;-77
2022/04/08 07:59:48;;;;;;;7.00;2.10;;;;;;;;;;4998517;28;99714;-77
2022/04/08 08:02:15;;;;;;;5.18;1.98;;;;;;;;;;4995697;28;99342;-77
2022/04/08 08:04:46;;;;;;;6.65;2.22;;;;;;;;;;4994974;28;101066;-79
2022/04/08 08:07:13;;;;;;;9.50;2.10;;;;;;;;;;4995652;28;98440;-77
2022/04/08 08:09:39;;;;;;;5.40;2.20;;;;;;;;;;4996133;28;100014;-77
2022/04/08 08:12:20;;;;;;;5.57;2.38;;;;;;;;;;4995153;28;99413;-77
2022/04/08 08:14:46;;;;;;;8.60;2.10;;;;;;;;;;4995395;28;98467;-77
2022/04/08 08:17:13;;;;;;;6.60;1.77;;;;;;;;;;4994894;28;99340;-78
2022/04/08 08:19:39;;;;;;;6.30;2.15;;;;;;;;;;4994246;28;101054;-77
2022/04/08 08:22:05;;;;;;;3.25;1.90;;;;;;;;;;4998557;28;98270;-77
2022/04/08 08:24:32;;;;;;;4.45;2.30;;;;;;;;;;4994863;28;100058;-78
2022/04/08 08:26:58;;;;;;;7.40;2.22;;;;;;;;;;4994300;28;99736;-77
2022/04/08 08:29:24;;;;;;;7.40;2.33;;;;;;;;;;4995183;28;99665;-77
2022/04/08 08:31:51;;;;;;;5.10;2.08;;;;;;;;;;4994710;28;98981;-78
2022/04/08 08:34:20;;;;;;;6.40;2.10;;;;;;;;;;4995631;28;97614;-78
2022/04/08 08:36:47;;;;;;;7.80;2.53;;;;;;;;;;4995023;28;98699;-77
2022/04/08 08:39:14;;;;;;;4.22;1.70;;;;;;;;;;4993639;28;99780;-77
2022/04/08 08:41:40;;;;;;;13.05;2.50;;;;;;;;;;4997836;28;99242;-79
2022/04/08 08:44:07;;;;;;;7.07;1.83;;;;;;;;;;4993366;28;101363;-78
2022/04/08 08:46:34;;;;;;;6.72;2.10;;;;;;;;;;4994535;28;98425;-78
2022/04/08 08:49:02;;;;;;;9.05;2.25;;;;;;;;;;4993498;28;100395;-78
2022/04/08 08:51:29;;;;;;;9.70;2.38;;;;;;;;;;4994715;28;100061;-77
2022/04/08 08:53:55;;;;;;;9.68;2.22;;;;;;;;;;4995158;28;98359;-77
2022/04/08 08:56:22;;;;;;;13.45;2.80;;;;;;;;;;4994745;28;99330;-77
2022/04/08 08:58:49;;;;;;;10.27;2.55;;;;;;;;;;4994960;28;98516;-77
2022/04/08 09:01:15;;;;;;;10.27;2.65;;;;;;;;;;4993190;28;98507;-78
2022/04/08 09:03:43;;;;;;;7.15;2.38;;;;;;;;;;4997620;28;98883;-76
2022/04/08 09:06:09;;;;;;;10.98;2.47;;;;;;;;;;4993187;28;99074;-76
2022/04/08 09:08:36;;;;;;;5.25;2.47;;;;;;;;;;4975497;28;99732;-76
2022/04/08 09:11:03;;;;;;;8.80;2.30;;;;;;;;;;4994198;28;99270;-79
2022/04/08 09:13:30;;;;;;;6.20;2.65;;;;;;;;;;4994840;28;98378;-80
2022/04/08 09:16:00;;;;;;;10.50;2.30;;;;;;;;;;4991904;28;98654;-78
2022/04/08 09:18:30;;;;;;;11.10;2.30;;;;;;;;;;4994041;28;99032;-78
2022/04/08 09:21:03;;;;;;;10.30;2.50;;;;;;;;;;4994499;28;98193;-79
2022/04/08 09:23:33;;;;;;;5.68;2.05;;;;;;;;;;4993889;28;99092;-79
2022/04/08 09:26:00;;;;;;;9.00;2.83;;;;;;;;;;4979864;28;102698;-78
2022/04/08 09:28:32;;;;;;;8.05;2.22;;;;;;;;;;4994258;28;99091;-77
2022/04/08 09:30:59;;;;;;;13.95;2.35;;;;;;;;;;4992636;28;100050;-78
2022/04/08 09:33:26;;;;;;;9.25;2.65;;;;;;;;;;4959043;28;98507;-78
2022/04/08 09:35:53;;;;;;;8.63;2.35;;;;;;;;;;4994290;28;98857;-78
2022/04/08 09:38:21;;;;;;;7.30;2.20;;;;;;;;;;4993953;28;99445;-77
2022/04/08 09:40:48;;;;;;;9.45;2.40;;;;;;;;;;4993944;28;98340;-80
2022/04/08 09:43:15;;;;;;;6.95;2.08;;;;;;;;;;4993768;28;98737;-79
2022/04/08 09:45:41;;;;;;;6.93;1.73;;;;;;;;;;4993696;28;99240;-77
2022/04/08 09:48:08;;;;;;;7.03;1.95;;;;;;;;;;4997355;28;97641;-79
2022/04/08 09:50:36;;;;;;;8.35;1.80;;;;;;;;;;4993774;28;99533;-79
2022/04/08 09:53:05;;;;;;;5.13;1.75;;;;;;;;;;4993615;28;98519;-79
2022/04/08 09:55:34;;;;;;;5.82;1.67;;;;;;;;;;4993054;28;99953;-79
2022/04/08 09:58:03;;;;;;;6.25;1.63;;;;;;;;;;4992193;28;100547;-80
2022/04/08 10:00:31;;;;;;;9.93;1.65;;;;;;;;;;4992723;28;98371;-79
2022/04/08 10:03:01;;;;;;;12.88;1.63;;;;;;;;;;4992570;28;100022;-80
2022/04/08 10:05:27;;;;;;;4.45;1.70;;;;;;;;;;4993588;28;99158;-80
2022/04/08 10:07:55;;;;;;;5.72;1.65;;;;;;;;;;4993484;28;98313;-80
2022/04/08 10:10:24;;;;;;;8.43;1.60;;;;;;;;;;4994285;28;99021;-80
2022/04/08 10:13:09;;;;;;;6.20;1.33;;;;;;;;;;4994752;28;97607;-80
2022/04/08 10:15:40;;;;;;;3.92;1.40;;;;;;;;;;4993745;28;98290;-79
2022/04/08 10:18:07;;;;;;;9.07;1.63;;;;;;;;;;4994022;28;98958;-78
2022/04/08 10:20:34;;;;;;;4.57;1.45;;;;;;;;;;4994066;28;99236;-77
2022/04/08 10:23:04;;;;;;;5.53;1.52;;;;;;;;;;4995350;28;100758;-79
2022/04/08 10:25:41;;;;;;;5.72;1.40;;;;;;;;;;4995542;28;99136;-80
2022/04/08 10:28:08;;;;;;;7.82;1.45;;;;;;;;;;4994415;28;98345;-78
2022/04/08 10:30:42;;;;;;;3.47;1.27;;;;;;;;;;4992551;28;101753;-79
2022/04/08 10:33:09;;;;;;;6.10;1.45;;;;;;;;;;4996213;28;99307;-79
2022/04/08 10:35:37;;;;;;;6.78;1.35;;;;;;;;;;4992944;28;99078;-77
2022/04/08 10:38:04;;;;;;;5.03;1.55;;;;;;;;;;4993215;28;98394;-79
2022/04/08 10:40:35;;;;;;;3.72;1.42;;;;;;;;;;4991858;28;98473;-77
2022/04/08 10:43:08;;;;;;;4.20;1.67;;;;;;;;;;4993187;28;98879;-78
2022/04/08 10:45:37;;;;;;;8.65;1.80;;;;;;;;;;4991139;28;100828;-78
2022/04/08 10:48:09;;;;;;;4.53;1.52;;;;;;;;;;4992932;28;98423;-78
2022/04/08 10:50:39;;;;;;;5.72;1.70;;;;;;;;;;4993273;28;98850;-78
2022/04/08 10:53:10;;;;;;;8.30;1.95;;;;;;;;;;4996067;28;99021;-80
2022/04/08 10:55:50;;;;;;;4.60;1.58;;;;;;;;;;4993284;28;99153;-78
2022/04/08 10:58:30;;;;;;;4.28;1.27;;;;;;;;;;4992866;28;99218;-77
2022/04/08 11:00:56;;;;;;;5.15;1.75;;;;;;;;;;4993144;28;98255;-78
2022/04/08 11:03:25;;;;;;;11.38;1.90;;;;;;;;;;4974690;28;100634;-79
2022/04/08 11:05:51;;;;;;;4.90;1.60;;;;;;;;;;4992560;28;99463;-78
2022/04/08 11:08:18;;;;;;;4.30;2.28;;;;;;;;;;4993087;28;98327;-78
2022/04/08 11:10:57;;;;;;;7.78;1.50;;;;;;;;;;4992589;28;99055;-79
2022/04/08 11:13:24;;;;;;;9.25;3.05;;;;;;;;;;4992630;28;99160;-80
2022/04/08 11:15:50;;;;;;;7.00;1.80;;;;;;;;;;4996086;28;98368;-77
2022/04/08 11:18:18;;;;;;;5.50;1.55;;;;;;;;;;4992489;28;99121;-78
2022/04/08 11:20:48;;;;;;;2.67;1.10;;;;;;;;;;4991327;28;98369;-78
2022/04/08 11:23:24;;;;;;;4.53;1.55;;;;;;;;;;4991254;28;99965;-78
2022/04/08 11:25:51;;;;;;;2.15;1.42;;;;;;;;;;4991984;28;100096;-78
2022/04/08 11:28:17;;;;;;;5.18;1.40;;;;;;;;;;4993109;28;99036;-79
2022/04/08 11:30:43;;;;;;;6.68;1.85;;;;;;;;;;4992573;28;98529;-80
2022/04/08 11:33:17;;;;;;;5.50;1.63;;;;;;;;;;4995079;28;99022;-78
2022/04/08 11:35:44;;;;;;;8.20;1.48;;;;;;;;;;4995405;28;99078;-79
2022/04/08 11:38:11;;;;;;;5.95;1.70;;;;;;;;;;4999006;28;99667;-79
2022/04/08 11:40:38;;;;;;;3.55;1.30;;;;;;;;;;4996030;28;98388;-80
2022/04/08 11:43:04;;;;;;;6.75;1.58;;;;;;;;;;4994757;28;100431;-79
2022/04/08 11:45:31;;;;;;;5.45;1.67;;;;;;;;;;4994262;28;100253;-77
2022/04/08 11:47:57;;;;;;;8.65;1.80;;;;;;;;;;4995178;28;98321;-77
2022/04/08 11:50:25;;;;;;;6.50;1.52;;;;;;;;;;4995526;28;99457;-78
2022/04/08 11:52:55;;;;;;;5.93;1.55;;;;;;;;;;4978418;28;100885;-78
2022/04/08 11:55:29;;;;;;;6.18;1.40;;;;;;;;;;4996042;28;98290;-79
2022/04/08 11:57:55;;;;;;;5.20;1.30;;;;;;;;;;4995866;28;98915;-78
2022/04/08 12:00:29;;;;;;;5.70;1.80;;;;;;;;;;4996848;28;102519;-77
2022/04/08 12:02:58;;;;;;;4.97;1.30;;;;;;;;;;4995450;28;99480;-77
2022/04/08 12:05:29;;;;;;;8.88;1.83;;;;;;;;;;4994370;28;102374;-79
2022/04/08 12:08:18;;;;;;;6.95;1.50;;;;;;;;;;4992979;28;98450;-79
2022/04/08 12:10:45;;;;;;;6.00;1.55;;;;;;;;;;4994010;28;99943;-78
2022/04/08 12:13:12;;;;;;;5.93;1.20;;;;;;;;;;4976679;28;99070;-79
2022/04/08 12:15:43;;;;;;;6.72;1.73;;;;;;;;;;4993744;28;98436;-79
2022/04/08 12:18:10;;;;;;;9.70;1.95;;;;;;;;;;4994118;28;99483;-78
2022/04/08 12:20:39;;;;;;;5.20;1.85;;;;;;;;;;4976191;28;102254;-80
2022/04/08 12:23:08;;;;;;;5.07;1.52;;;;;;;;;;4996315;28;98494;-79
2022/04/08 12:25:35;;;;;;;6.13;1.60;;;;;;;;;;4992663;28;99875;-78
2022/04/08 12:28:08;;;;;;;8.50;1.65;;;;;;;;;;4993367;28;98479;-77
2022/04/08 12:30:36;;;;;;;7.32;1.58;;;;;;;;;;4993498;28;99042;-78
2022/04/08 12:33:03;;;;;;;4.45;1.40;;;;;;;;;;4992478;28;100272;-78
2022/04/08 12:35:31;;;;;;;6.60;1.80;;;;;;;;;;4993111;28;98549;-77
2022/04/08 12:37:59;;;;;;;4.55;1.55;;;;;;;;;;4993068;28;100453;-80
2022/04/08 12:40:26;;;;;;;6.00;1.58;;;;;;;;;;4993224;28;100179;-79
2022/04/08 12:42:52;;;;;;;3.35;1.30;;;;;;;;;;4995377;28;97700;-78
2022/04/08 12:45:18;;;;;;;4.07;1.50;;;;;;;;;;4997725;28;99442;-79
2022/04/08 12:47:45;;;;;;;3.10;1.30;;;;;;;;;;4994948;28;98314;-79
2022/04/08 12:50:11;;;;;;;2.25;1.40;;;;;;;;;;4994629;28;98973;-81
2022/04/08 12:52:38;;;;;;;6.20;1.55;;;;;;;;;;4993325;28;101675;-77
2022/04/08 12:55:04;;;;;;;4.10;1.88;;;;;;;;;;4994729;28;98388;-77
2022/04/08 12:57:32;;;;;;;4.72;1.85;;;;;;;;;;4994731;28;99867;-79
2022/04/08 13:00:19;;;;;;;13.45;2.08;;;;;;;;;;4993837;28;99154;-78
2022/04/08 13:02:45;;;;;;;8.23;1.90;;;;;;;;;;4993504;28;98491;-79
2022/04/08 13:05:12;;;;;;;4.68;1.70;;;;;;;;;;4996488;28;101748;-79
2022/04/08 13:07:39;;;;;;;7.70;2.30;;;;;;;;;;4994327;28;97803;-79
2022/04/08 13:10:07;;;;;;;7.95;2.00;;;;;;;;;;4993537;28;101107;-79
2022/04/08 13:12:35;;;;;;;4.40;1.60;;;;;;;;;;4994354;28;99246;-80
2022/04/08 13:15:05;;;;;;;5.78;2.00;;;;;;;;;;4994221;28;99049;-79
2022/04/08 13:17:32;;;;;;;5.88;2.30;;;;;;;;;;4994829;28;100179;-80
2022/04/08 13:19:59;;;;;;;4.65;1.70;;;;;;;;;;4993028;28;99165;-80
2022/04/08 13:22:28;;;;;;;4.70;1.85;;;;;;;;;;4993185;28;98374;-80
2022/04/08 13:24:55;;;;;;;10.57;2.20;;;;;;;;;;4994291;28;100551;-78
2022/04/08 13:27:22;;;;;;;5.50;2.03;;;;;;;;;;4997008;28;100229;-78
2022/04/08 13:29:49;;;;;;;8.35;1.80;;;;;;;;;;4994119;28;99807;-79
2022/04/08 13:32:17;;;;;;;6.07;1.90;;;;;;;;;;4994261;28;99580;-79
2022/04/08 13:34:44;;;;;;;13.20;2.17;;;;;;;;;;4994206;28;98308;-77
2022/04/08 13:37:13;;;;;;;8.93;2.10;;;;;;;;;;4993010;28;101572;-78
2022/04/08 13:39:40;;;;;;;7.70;1.60;;;;;;;;;;4991929;28;102382;-77
2022/04/08 13:42:07;;;;;;;6.40;1.52;;;;;;;;;;4994215;28;98315;-79
2022/04/08 13:44:34;;;;;;;6.60;1.95;;;;;;;;;;4992812;28;100623;-78
2022/04/08 13:47:01;;;;;;;11.00;2.53;;;;;;;;;;4993492;28;99290;-80
2022/04/08 13:49:27;;;;;;;8.27;2.25;;;;;;;;;;4996275;28;98443;-80
2022/04/08 13:51:54;;;;;;;5.88;1.80;;;;;;;;;;4998746;28;99330;-79
2022/04/08 13:54:20;;;;;;;5.72;1.80;;;;;;;;;;4993230;28;98305;-79
2022/04/08 13:56:47;;;;;;;7.65;2.17;;;;;;;;;;4994567;28;98898;-79
2022/04/08 13:59:13;;;;;;;11.45;2.15;;;;;;;;;;4993481;28;99176;-80
2022/04/08 14:01:40;;;;;;;9.07;2.10;;;;;;;;;;4993670;28;98488;-77
2022/04/08 14:04:06;;;;;;;9.10;2.03;;;;;;;;;;4992338;28;99807;-80
2022/04/08 14:06:33;;;;;;;4.88;1.90;;;;;;;;;;4993564;28;99148;-79
2022/04/08 14:08:59;;;;;;;3.55;1.80;;;;;;;;;;4993625;28;98376;-79
2022/04/08 14:11:26;;;;;;;7.00;2.10;;;;;;;;;;4996912;28;98952;-79
2022/04/08 14:13:52;;;;;;;6.97;2.25;;;;;;;;;;4992485;28;98457;-80
2022/04/08 14:16:19;;;;;;;13.63;2.00;;;;;;;;;;4993512;28;98999;-80
2022/04/08 14:18:45;;;;;;;8.90;2.30;;;;;;;;;;4993316;28;99250;-79
2022/04/08 14:21:11;;;;;;;6.88;2.28;;;;;;;;;;4993459;28;97655;-79
2022/04/08 14:23:40;;;;;;;4.10;1.88;;;;;;;;;;4993773;28;98325;-81
2022/04/08 14:26:06;;;;;;;5.85;2.00;;;;;;;;;;4993164;28;99255;-78
2022/04/08 14:28:34;;;;;;;4.43;1.58;;;;;;;;;;4993096;28;99203;-80
2022/04/08 14:31:00;;;;;;;5.55;1.60;;;;;;;;;;4993150;28;100538;-80
2022/04/08 14:33:26;;;;;;;4.35;1.50;;;;;;;;;;4996107;28;99985;-80
2022/04/08 14:35:53;;;;;;;4.63;1.75;;;;;;;;;;4992779;28;98713;-79
2022/04/08 14:38:20;;;;;;;5.97;1.75;;;;;;;;;;4993053;28;99068;-79